sensor_id;sensor_type;location;lat;lon;timestamp;P1;durP1;ratioP1;P2;durP2;ratioP2
20619;SDS011;10469;42.720;23.252;2022-10-16T00:00:41;12.05;;;8.13;;
20619;SDS011;10469;42.720;23.252;2022-10-16T00:03:08;13.00;;;9.48;;
20619;SDS011;10469;42.720;23.252;2022-10-16T00:05:38;12.50;;;8.05;;
20619;SDS011;10469;42.720;23.252;2022-10-16T00:08:08;12.15;;;8.38;;
20619;SDS011;10469;42.720;23.252;2022-10-16T00:10:35;20.63;;;12.15;;
20619;SDS011;10469;42.720;23.252;2022-10-16T00:13:01;19.73;;;13.85;;
20619;SDS011;10469;42.720;23.252;2022-10-16T00:15:28;19.50;;;11.55;;
20619;SDS011;10469;42.720;23.252;2022-10-16T00:17:53;24.88;;;15.63;;
20619;SDS011;10469;42.720;23.252;2022-10-16T00:20:19;31.27;;;15.73;;
20619;SDS011;10469;42.720;23.252;2022-10-16T00:22:44;29.92;;;16.95;;
20619;SDS011;10469;42.720;23.252;2022-10-16T00:25:10;19.55;;;14.30;;
20619;SDS011;10469;42.720;23.252;2022-10-16T00:27:36;19.77;;;13.35;;
20619;SDS011;10469;42.720;23.252;2022-10-16T00:30:01;21.77;;;12.38;;
20619;SDS011;10469;42.720;23.252;2022-10-16T00:32:28;16.65;;;11.80;;
20619;SDS011;10469;42.720;23.252;2022-10-16T00:34:54;17.92;;;10.82;;
20619;SDS011;10469;42.720;23.252;2022-10-16T00:37:20;14.80;;;10.80;;
20619;SDS011;10469;42.720;23.252;2022-10-16T00:39:46;17.48;;;10.10;;
20619;SDS011;10469;42.720;23.252;2022-10-16T00:42:15;14.65;;;9.25;;
20619;SDS011;10469;42.720;23.252;2022-10-16T00:44:50;19.63;;;8.85;;
20619;SDS011;10469;42.720;23.252;2022-10-16T00:47:25;13.70;;;9.25;;
20619;SDS011;10469;42.720;23.252;2022-10-16T00:50:02;11.75;;;8.93;;
20619;SDS011;10469;42.720;23.252;2022-10-16T00:54:55;14.68;;;8.70;;
20619;SDS011;10469;42.720;23.252;2022-10-16T00:57:22;12.52;;;9.02;;
20619;SDS011;10469;42.720;23.252;2022-10-16T00:59:49;12.55;;;8.65;;
20619;SDS011;10469;42.720;23.252;2022-10-16T01:02:15;11.23;;;8.25;;
20619;SDS011;10469;42.720;23.252;2022-10-16T01:04:48;10.20;;;7.88;;
20619;SDS011;10469;42.720;23.252;2022-10-16T01:07:32;12.57;;;8.00;;
20619;SDS011;10469;42.720;23.252;2022-10-16T01:10:06;13.82;;;8.18;;
20619;SDS011;10469;42.720;23.252;2022-10-16T01:15:11;12.73;;;8.27;;
20619;SDS011;10469;42.720;23.252;2022-10-16T01:23:51;13.73;;;8.75;;
20619;SDS011;10469;42.720;23.252;2022-10-16T01:26:56;10.63;;;8.50;;
20619;SDS011;10469;42.720;23.252;2022-10-16T01:30:10;11.18;;;8.20;;
20619;SDS011;10469;42.720;23.252;2022-10-16T01:32:40;9.50;;;8.07;;
20619;SDS011;10469;42.720;23.252;2022-10-16T01:35:14;12.95;;;8.93;;
20619;SDS011;10469;42.720;23.252;2022-10-16T01:40:41;14.75;;;7.80;;
20619;SDS011;10469;42.720;23.252;2022-10-16T01:43:15;11.07;;;8.27;;
20619;SDS011;10469;42.720;23.252;2022-10-16T01:45:46;10.80;;;8.48;;
20619;SDS011;10469;42.720;23.252;2022-10-16T01:48:13;11.15;;;8.73;;
20619;SDS011;10469;42.720;23.252;2022-10-16T01:50:43;14.90;;;9.02;;
20619;SDS011;10469;42.720;23.252;2022-10-16T01:53:13;12.07;;;8.68;;
20619;SDS011;10469;42.720;23.252;2022-10-16T01:55:42;13.80;;;8.73;;
20619;SDS011;10469;42.720;23.252;2022-10-16T01:58:12;10.70;;;8.32;;
20619;SDS011;10469;42.720;23.252;2022-10-16T02:00:39;11.48;;;9.10;;
20619;SDS011;10469;42.720;23.252;2022-10-16T02:03:08;12.93;;;9.48;;
20619;SDS011;10469;42.720;23.252;2022-10-16T02:05:56;17.42;;;9.80;;
20619;SDS011;10469;42.720;23.252;2022-10-16T02:08:24;14.25;;;8.88;;
20619;SDS011;10469;42.720;23.252;2022-10-16T02:10:54;14.18;;;9.32;;
20619;SDS011;10469;42.720;23.252;2022-10-16T02:13:33;12.20;;;8.35;;
20619;SDS011;10469;42.720;23.252;2022-10-16T02:16:02;14.60;;;9.80;;
20619;SDS011;10469;42.720;23.252;2022-10-16T02:18:28;18.88;;;9.93;;
20619;SDS011;10469;42.720;23.252;2022-10-16T02:20:59;17.10;;;10.43;;
20619;SDS011;10469;42.720;23.252;2022-10-16T02:26:07;11.27;;;8.57;;
20619;SDS011;10469;42.720;23.252;2022-10-16T02:28:39;12.38;;;9.40;;
20619;SDS011;10469;42.720;23.252;2022-10-16T02:31:11;14.27;;;9.63;;
20619;SDS011;10469;42.720;23.252;2022-10-16T02:33:41;13.85;;;9.98;;
20619;SDS011;10469;42.720;23.252;2022-10-16T02:36:09;12.70;;;9.23;;
20619;SDS011;10469;42.720;23.252;2022-10-16T02:38:35;12.25;;;9.45;;
20619;SDS011;10469;42.720;23.252;2022-10-16T02:41:02;12.73;;;9.70;;
20619;SDS011;10469;42.720;23.252;2022-10-16T02:43:29;12.82;;;9.23;;
20619;SDS011;10469;42.720;23.252;2022-10-16T02:45:55;13.35;;;9.90;;
20619;SDS011;10469;42.720;23.252;2022-10-16T02:48:20;14.70;;;9.63;;
20619;SDS011;10469;42.720;23.252;2022-10-16T02:50:46;17.52;;;10.20;;
20619;SDS011;10469;42.720;23.252;2022-10-16T02:53:12;15.60;;;9.57;;
20619;SDS011;10469;42.720;23.252;2022-10-16T02:55:37;12.98;;;9.15;;
20619;SDS011;10469;42.720;23.252;2022-10-16T02:58:03;13.90;;;10.13;;
20619;SDS011;10469;42.720;23.252;2022-10-16T03:00:28;17.08;;;9.93;;
20619;SDS011;10469;42.720;23.252;2022-10-16T03:02:54;12.05;;;10.02;;
20619;SDS011;10469;42.720;23.252;2022-10-16T03:05:19;11.50;;;8.85;;
20619;SDS011;10469;42.720;23.252;2022-10-16T03:07:45;19.33;;;10.07;;
20619;SDS011;10469;42.720;23.252;2022-10-16T03:10:10;15.07;;;9.10;;
20619;SDS011;10469;42.720;23.252;2022-10-16T03:12:36;14.40;;;10.60;;
20619;SDS011;10469;42.720;23.252;2022-10-16T03:15:02;13.07;;;9.70;;
20619;SDS011;10469;42.720;23.252;2022-10-16T03:17:27;13.38;;;9.57;;
20619;SDS011;10469;42.720;23.252;2022-10-16T03:19:53;20.65;;;10.02;;
20619;SDS011;10469;42.720;23.252;2022-10-16T03:22:18;19.02;;;10.32;;
20619;SDS011;10469;42.720;23.252;2022-10-16T03:24:44;13.88;;;9.90;;
20619;SDS011;10469;42.720;23.252;2022-10-16T03:27:10;16.02;;;9.48;;
20619;SDS011;10469;42.720;23.252;2022-10-16T03:29:35;16.58;;;9.90;;
20619;SDS011;10469;42.720;23.252;2022-10-16T03:32:01;16.67;;;9.75;;
20619;SDS011;10469;42.720;23.252;2022-10-16T03:34:26;17.58;;;10.07;;
20619;SDS011;10469;42.720;23.252;2022-10-16T03:36:53;16.83;;;10.00;;
20619;SDS011;10469;42.720;23.252;2022-10-16T03:39:19;18.02;;;10.13;;
20619;SDS011;10469;42.720;23.252;2022-10-16T03:41:44;14.23;;;10.07;;
20619;SDS011;10469;42.720;23.252;2022-10-16T03:44:11;16.17;;;10.07;;
20619;SDS011;10469;42.720;23.252;2022-10-16T03:46:37;15.95;;;10.20;;
20619;SDS011;10469;42.720;23.252;2022-10-16T03:49:03;14.02;;;9.45;;
20619;SDS011;10469;42.720;23.252;2022-10-16T03:51:28;11.77;;;9.07;;
20619;SDS011;10469;42.720;23.252;2022-10-16T03:53:54;13.82;;;10.10;;
20619;SDS011;10469;42.720;23.252;2022-10-16T03:56:19;13.05;;;9.63;;
20619;SDS011;10469;42.720;23.252;2022-10-16T03:58:45;17.15;;;9.60;;
20619;SDS011;10469;42.720;23.252;2022-10-16T04:01:10;24.33;;;10.02;;
20619;SDS011;10469;42.720;23.252;2022-10-16T04:03:36;11.88;;;8.55;;
20619;SDS011;10469;42.720;23.252;2022-10-16T04:06:01;12.20;;;9.15;;
20619;SDS011;10469;42.720;23.252;2022-10-16T04:08:27;13.63;;;9.48;;
20619;SDS011;10469;42.720;23.252;2022-10-16T04:10:52;14.25;;;9.93;;
20619;SDS011;10469;42.720;23.252;2022-10-16T04:13:18;13.32;;;9.95;;
20619;SDS011;10469;42.720;23.252;2022-10-16T04:15:44;15.02;;;10.35;;
20619;SDS011;10469;42.720;23.252;2022-10-16T04:18:11;11.85;;;9.30;;
20619;SDS011;10469;42.720;23.252;2022-10-16T04:20:37;12.55;;;9.75;;
20619;SDS011;10469;42.720;23.252;2022-10-16T04:23:03;15.57;;;9.68;;
20619;SDS011;10469;42.720;23.252;2022-10-16T04:25:29;18.63;;;10.80;;
20619;SDS011;10469;42.720;23.252;2022-10-16T04:27:55;17.77;;;10.20;;
20619;SDS011;10469;42.720;23.252;2022-10-16T04:30:21;13.55;;;9.98;;
20619;SDS011;10469;42.720;23.252;2022-10-16T04:32:48;16.30;;;10.07;;
20619;SDS011;10469;42.720;23.252;2022-10-16T04:35:15;14.63;;;9.82;;
20619;SDS011;10469;42.720;23.252;2022-10-16T04:37:41;14.98;;;9.90;;
20619;SDS011;10469;42.720;23.252;2022-10-16T04:40:07;15.45;;;10.55;;
20619;SDS011;10469;42.720;23.252;2022-10-16T04:42:32;14.68;;;9.82;;
20619;SDS011;10469;42.720;23.252;2022-10-16T04:44:58;17.23;;;10.70;;
20619;SDS011;10469;42.720;23.252;2022-10-16T04:47:23;19.05;;;10.75;;
20619;SDS011;10469;42.720;23.252;2022-10-16T04:49:49;23.00;;;11.93;;
20619;SDS011;10469;42.720;23.252;2022-10-16T04:52:14;19.85;;;11.75;;
20619;SDS011;10469;42.720;23.252;2022-10-16T04:54:40;20.63;;;11.38;;
20619;SDS011;10469;42.720;23.252;2022-10-16T04:57:06;16.75;;;11.30;;
20619;SDS011;10469;42.720;23.252;2022-10-16T04:59:31;13.05;;;9.88;;
20619;SDS011;10469;42.720;23.252;2022-10-16T05:01:57;16.48;;;11.25;;
20619;SDS011;10469;42.720;23.252;2022-10-16T05:04:23;18.33;;;10.27;;
20619;SDS011;10469;42.720;23.252;2022-10-16T05:06:48;14.65;;;9.73;;
20619;SDS011;10469;42.720;23.252;2022-10-16T05:09:14;19.80;;;9.77;;
20619;SDS011;10469;42.720;23.252;2022-10-16T05:11:40;15.20;;;9.48;;
20619;SDS011;10469;42.720;23.252;2022-10-16T05:14:05;20.52;;;9.38;;
20619;SDS011;10469;42.720;23.252;2022-10-16T05:16:33;14.07;;;7.82;;
20619;SDS011;10469;42.720;23.252;2022-10-16T05:18:59;18.15;;;8.25;;
20619;SDS011;10469;42.720;23.252;2022-10-16T05:21:24;14.85;;;7.47;;
20619;SDS011;10469;42.720;23.252;2022-10-16T05:23:50;17.02;;;8.88;;
20619;SDS011;10469;42.720;23.252;2022-10-16T05:26:15;15.70;;;8.30;;
20619;SDS011;10469;42.720;23.252;2022-10-16T05:28:41;17.20;;;8.35;;
20619;SDS011;10469;42.720;23.252;2022-10-16T05:31:07;13.00;;;8.95;;
20619;SDS011;10469;42.720;23.252;2022-10-16T05:33:34;22.75;;;10.27;;
20619;SDS011;10469;42.720;23.252;2022-10-16T05:36:04;18.67;;;10.55;;
20619;SDS011;10469;42.720;23.252;2022-10-16T05:38:31;15.93;;;8.25;;
20619;SDS011;10469;42.720;23.252;2022-10-16T05:40:56;21.25;;;9.57;;
20619;SDS011;10469;42.720;23.252;2022-10-16T05:43:23;17.55;;;8.63;;
20619;SDS011;10469;42.720;23.252;2022-10-16T05:45:59;13.88;;;7.57;;
20619;SDS011;10469;42.720;23.252;2022-10-16T05:48:25;8.77;;;6.72;;
20619;SDS011;10469;42.720;23.252;2022-10-16T05:51:01;11.65;;;7.00;;
20619;SDS011;10469;42.720;23.252;2022-10-16T05:53:29;12.07;;;7.32;;
20619;SDS011;10469;42.720;23.252;2022-10-16T05:55:56;13.35;;;7.40;;
20619;SDS011;10469;42.720;23.252;2022-10-16T05:58:23;11.20;;;6.85;;
20619;SDS011;10469;42.720;23.252;2022-10-16T06:00:52;15.40;;;7.13;;
20619;SDS011;10469;42.720;23.252;2022-10-16T06:03:22;12.23;;;7.15;;
20619;SDS011;10469;42.720;23.252;2022-10-16T06:05:48;14.45;;;6.43;;
20619;SDS011;10469;42.720;23.252;2022-10-16T06:08:14;11.18;;;7.20;;
20619;SDS011;10469;42.720;23.252;2022-10-16T06:10:39;10.57;;;6.60;;
20619;SDS011;10469;42.720;23.252;2022-10-16T06:13:08;11.60;;;7.53;;
20619;SDS011;10469;42.720;23.252;2022-10-16T06:15:33;15.60;;;7.45;;
20619;SDS011;10469;42.720;23.252;2022-10-16T06:17:59;15.88;;;7.90;;
20619;SDS011;10469;42.720;23.252;2022-10-16T06:20:24;12.48;;;7.40;;
20619;SDS011;10469;42.720;23.252;2022-10-16T06:22:51;13.13;;;9.15;;
20619;SDS011;10469;42.720;23.252;2022-10-16T06:25:16;12.50;;;8.10;;
20619;SDS011;10469;42.720;23.252;2022-10-16T06:27:42;17.77;;;7.70;;
20619;SDS011;10469;42.720;23.252;2022-10-16T06:30:08;10.23;;;8.13;;
20619;SDS011;10469;42.720;23.252;2022-10-16T06:32:34;11.35;;;8.27;;
20619;SDS011;10469;42.720;23.252;2022-10-16T06:35:00;10.02;;;8.02;;
20619;SDS011;10469;42.720;23.252;2022-10-16T06:37:26;16.45;;;8.23;;
20619;SDS011;10469;42.720;23.252;2022-10-16T06:39:52;15.80;;;8.00;;
20619;SDS011;10469;42.720;23.252;2022-10-16T06:42:17;12.63;;;8.10;;
20619;SDS011;10469;42.720;23.252;2022-10-16T06:44:44;13.40;;;8.63;;
20619;SDS011;10469;42.720;23.252;2022-10-16T06:47:10;14.52;;;9.68;;
20619;SDS011;10469;42.720;23.252;2022-10-16T06:49:36;11.95;;;8.65;;
20619;SDS011;10469;42.720;23.252;2022-10-16T06:52:01;12.23;;;9.90;;
20619;SDS011;10469;42.720;23.252;2022-10-16T06:54:27;18.98;;;10.60;;
20619;SDS011;10469;42.720;23.252;2022-10-16T06:56:53;13.57;;;8.80;;
20619;SDS011;10469;42.720;23.252;2022-10-16T06:59:20;14.38;;;8.82;;
20619;SDS011;10469;42.720;23.252;2022-10-16T07:01:46;12.82;;;9.23;;
20619;SDS011;10469;42.720;23.252;2022-10-16T07:04:12;13.40;;;8.70;;
20619;SDS011;10469;42.720;23.252;2022-10-16T07:06:38;10.63;;;8.32;;
20619;SDS011;10469;42.720;23.252;2022-10-16T07:09:05;15.90;;;9.18;;
20619;SDS011;10469;42.720;23.252;2022-10-16T07:11:34;15.30;;;8.80;;
20619;SDS011;10469;42.720;23.252;2022-10-16T07:14:02;15.02;;;10.68;;
20619;SDS011;10469;42.720;23.252;2022-10-16T07:16:28;19.60;;;10.05;;
20619;SDS011;10469;42.720;23.252;2022-10-16T07:18:56;15.52;;;9.23;;
20619;SDS011;10469;42.720;23.252;2022-10-16T07:21:24;20.65;;;9.60;;
20619;SDS011;10469;42.720;23.252;2022-10-16T07:23:54;13.55;;;9.20;;
20619;SDS011;10469;42.720;23.252;2022-10-16T07:26:22;11.35;;;8.60;;
20619;SDS011;10469;42.720;23.252;2022-10-16T07:28:48;15.30;;;8.70;;
20619;SDS011;10469;42.720;23.252;2022-10-16T07:31:15;16.08;;;8.50;;
20619;SDS011;10469;42.720;23.252;2022-10-16T07:33:43;12.82;;;8.27;;
20619;SDS011;10469;42.720;23.252;2022-10-16T07:36:10;15.02;;;7.90;;
20619;SDS011;10469;42.720;23.252;2022-10-16T07:38:37;12.57;;;8.35;;
20619;SDS011;10469;42.720;23.252;2022-10-16T07:41:04;13.80;;;8.25;;
20619;SDS011;10469;42.720;23.252;2022-10-16T07:43:31;13.13;;;8.73;;
20619;SDS011;10469;42.720;23.252;2022-10-16T07:45:57;16.75;;;8.27;;
20619;SDS011;10469;42.720;23.252;2022-10-16T07:48:24;13.70;;;8.50;;
20619;SDS011;10469;42.720;23.252;2022-10-16T07:50:52;17.33;;;7.63;;
20619;SDS011;10469;42.720;23.252;2022-10-16T07:53:21;15.32;;;7.95;;
20619;SDS011;10469;42.720;23.252;2022-10-16T07:55:47;14.50;;;7.88;;
20619;SDS011;10469;42.720;23.252;2022-10-16T07:58:12;9.40;;;7.03;;
20619;SDS011;10469;42.720;23.252;2022-10-16T08:00:38;13.15;;;8.18;;
20619;SDS011;10469;42.720;23.252;2022-10-16T08:03:03;12.50;;;7.93;;
20619;SDS011;10469;42.720;23.252;2022-10-16T08:05:30;11.13;;;7.68;;
20619;SDS011;10469;42.720;23.252;2022-10-16T08:07:57;8.43;;;6.28;;
20619;SDS011;10469;42.720;23.252;2022-10-16T08:10:23;8.55;;;6.55;;
20619;SDS011;10469;42.720;23.252;2022-10-16T08:12:50;10.93;;;6.65;;
20619;SDS011;10469;42.720;23.252;2022-10-16T08:15:17;8.80;;;6.70;;
20619;SDS011;10469;42.720;23.252;2022-10-16T08:17:43;9.73;;;6.80;;
20619;SDS011;10469;42.720;23.252;2022-10-16T08:20:09;10.35;;;6.78;;
20619;SDS011;10469;42.720;23.252;2022-10-16T08:22:35;9.10;;;6.20;;
20619;SDS011;10469;42.720;23.252;2022-10-16T08:25:00;10.85;;;6.28;;
20619;SDS011;10469;42.720;23.252;2022-10-16T08:27:31;12.02;;;6.95;;
20619;SDS011;10469;42.720;23.252;2022-10-16T08:29:57;12.90;;;7.57;;
20619;SDS011;10469;42.720;23.252;2022-10-16T08:32:23;9.43;;;7.05;;
20619;SDS011;10469;42.720;23.252;2022-10-16T08:34:48;11.10;;;7.40;;
20619;SDS011;10469;42.720;23.252;2022-10-16T08:37:14;7.85;;;5.80;;
20619;SDS011;10469;42.720;23.252;2022-10-16T08:39:40;10.50;;;6.20;;
20619;SDS011;10469;42.720;23.252;2022-10-16T08:42:08;7.45;;;6.05;;
20619;SDS011;10469;42.720;23.252;2022-10-16T08:47:49;9.20;;;5.93;;
20619;SDS011;10469;42.720;23.252;2022-10-16T08:50:37;8.98;;;5.80;;
20619;SDS011;10469;42.720;23.252;2022-10-16T08:53:05;7.45;;;5.20;;
20619;SDS011;10469;42.720;23.252;2022-10-16T08:55:41;7.22;;;5.10;;
20619;SDS011;10469;42.720;23.252;2022-10-16T08:58:20;7.22;;;4.40;;
20619;SDS011;10469;42.720;23.252;2022-10-16T09:00:48;6.40;;;4.13;;
20619;SDS011;10469;42.720;23.252;2022-10-16T09:16:44;6.60;;;4.20;;
20619;SDS011;10469;42.720;23.252;2022-10-16T09:19:17;12.23;;;4.53;;
20619;SDS011;10469;42.720;23.252;2022-10-16T09:21:49;4.65;;;3.50;;
20619;SDS011;10469;42.720;23.252;2022-10-16T09:24:16;5.75;;;4.03;;
20619;SDS011;10469;42.720;23.252;2022-10-16T09:26:44;5.95;;;4.07;;
20619;SDS011;10469;42.720;23.252;2022-10-16T09:29:15;6.18;;;3.70;;
20619;SDS011;10469;42.720;23.252;2022-10-16T09:31:45;7.22;;;4.03;;
20619;SDS011;10469;42.720;23.252;2022-10-16T09:34:25;8.68;;;4.25;;
20619;SDS011;10469;42.720;23.252;2022-10-16T09:36:56;7.85;;;3.95;;
20619;SDS011;10469;42.720;23.252;2022-10-16T09:39:24;5.32;;;4.00;;
20619;SDS011;10469;42.720;23.252;2022-10-16T09:41:50;7.63;;;3.72;;
20619;SDS011;10469;42.720;23.252;2022-10-16T09:44:18;7.45;;;4.63;;
20619;SDS011;10469;42.720;23.252;2022-10-16T09:47:03;5.15;;;4.07;;
20619;SDS011;10469;42.720;23.252;2022-10-16T09:49:49;4.20;;;3.55;;
20619;SDS011;10469;42.720;23.252;2022-10-16T09:52:27;7.80;;;4.30;;
20619;SDS011;10469;42.720;23.252;2022-10-16T09:54:55;6.10;;;3.38;;
20619;SDS011;10469;42.720;23.252;2022-10-16T09:57:23;4.63;;;3.25;;
20619;SDS011;10469;42.720;23.252;2022-10-16T09:59:53;7.78;;;3.47;;
20619;SDS011;10469;42.720;23.252;2022-10-16T10:02:40;4.53;;;3.55;;
20619;SDS011;10469;42.720;23.252;2022-10-16T10:05:06;5.18;;;3.97;;
20619;SDS011;10469;42.720;23.252;2022-10-16T10:07:44;5.75;;;3.42;;
20619;SDS011;10469;42.720;23.252;2022-10-16T10:10:21;4.65;;;3.15;;
20619;SDS011;10469;42.720;23.252;2022-10-16T10:12:56;6.00;;;3.42;;
20619;SDS011;10469;42.720;23.252;2022-10-16T10:15:23;4.95;;;3.45;;
20619;SDS011;10469;42.720;23.252;2022-10-16T10:20:30;7.10;;;3.35;;
20619;SDS011;10469;42.720;23.252;2022-10-16T10:22:59;12.13;;;4.22;;
20619;SDS011;10469;42.720;23.252;2022-10-16T10:28:29;6.15;;;3.30;;
20619;SDS011;10469;42.720;23.252;2022-10-16T10:38:49;7.00;;;4.13;;
20619;SDS011;10469;42.720;23.252;2022-10-16T10:41:27;7.18;;;4.10;;
20619;SDS011;10469;42.720;23.252;2022-10-16T10:46:45;6.60;;;3.53;;
20619;SDS011;10469;42.720;23.252;2022-10-16T10:49:49;8.38;;;4.18;;
20619;SDS011;10469;42.720;23.252;2022-10-16T11:05:59;4.40;;;3.58;;
20619;SDS011;10469;42.720;23.252;2022-10-16T11:08:51;4.72;;;3.15;;
20619;SDS011;10469;42.720;23.252;2022-10-16T11:11:23;6.50;;;3.47;;
20619;SDS011;10469;42.720;23.252;2022-10-16T11:19:14;3.90;;;3.08;;
20619;SDS011;10469;42.720;23.252;2022-10-16T11:21:55;5.82;;;3.10;;
20619;SDS011;10469;42.720;23.252;2022-10-16T11:27:15;4.90;;;3.20;;
20619;SDS011;10469;42.720;23.252;2022-10-16T11:29:46;4.65;;;2.92;;
20619;SDS011;10469;42.720;23.252;2022-10-16T11:32:46;7.85;;;3.55;;
20619;SDS011;10469;42.720;23.252;2022-10-16T11:35:37;4.15;;;3.55;;
20619;SDS011;10469;42.720;23.252;2022-10-16T11:38:29;5.07;;;3.47;;
20619;SDS011;10469;42.720;23.252;2022-10-16T11:41:10;6.28;;;3.50;;
20619;SDS011;10469;42.720;23.252;2022-10-16T11:43:45;4.60;;;3.40;;
20619;SDS011;10469;42.720;23.252;2022-10-16T11:46:19;3.20;;;2.90;;
20619;SDS011;10469;42.720;23.252;2022-10-16T11:51:48;4.40;;;3.22;;
20619;SDS011;10469;42.720;23.252;2022-10-16T11:54:35;3.22;;;2.92;;
20619;SDS011;10469;42.720;23.252;2022-10-16T11:57:18;7.15;;;2.97;;
20619;SDS011;10469;42.720;23.252;2022-10-16T12:02:44;4.97;;;3.72;;
20619;SDS011;10469;42.720;23.252;2022-10-16T12:05:22;6.85;;;3.33;;
20619;SDS011;10469;42.720;23.252;2022-10-16T12:08:02;3.13;;;2.80;;
20619;SDS011;10469;42.720;23.252;2022-10-16T12:10:30;3.45;;;2.60;;
20619;SDS011;10469;42.720;23.252;2022-10-16T12:12:59;4.32;;;2.65;;
20619;SDS011;10469;42.720;23.252;2022-10-16T12:15:33;5.60;;;3.08;;
20619;SDS011;10469;42.720;23.252;2022-10-16T12:18:07;4.82;;;3.25;;
20619;SDS011;10469;42.720;23.252;2022-10-16T12:20:58;5.43;;;3.58;;
20619;SDS011;10469;42.720;23.252;2022-10-16T12:23:30;5.07;;;3.50;;
20619;SDS011;10469;42.720;23.252;2022-10-16T12:26:00;8.93;;;3.55;;
20619;SDS011;10469;42.720;23.252;2022-10-16T12:28:30;6.78;;;3.63;;
20619;SDS011;10469;42.720;23.252;2022-10-16T12:30:58;5.75;;;3.45;;
20619;SDS011;10469;42.720;23.252;2022-10-16T12:33:30;5.28;;;3.80;;
20619;SDS011;10469;42.720;23.252;2022-10-16T12:35:59;5.70;;;2.92;;
20619;SDS011;10469;42.720;23.252;2022-10-16T12:38:28;4.43;;;2.97;;
20619;SDS011;10469;42.720;23.252;2022-10-16T12:40:56;6.00;;;3.05;;
20619;SDS011;10469;42.720;23.252;2022-10-16T12:48:47;7.65;;;3.40;;
20619;SDS011;10469;42.720;23.252;2022-10-16T12:54:01;6.10;;;3.38;;
20619;SDS011;10469;42.720;23.252;2022-10-16T12:56:31;3.60;;;2.97;;
20619;SDS011;10469;42.720;23.252;2022-10-16T12:59:14;7.32;;;3.10;;
20619;SDS011;10469;42.720;23.252;2022-10-16T13:04:56;5.32;;;3.10;;
20619;SDS011;10469;42.720;23.252;2022-10-16T13:10:55;5.78;;;3.80;;
20619;SDS011;10469;42.720;23.252;2022-10-16T13:13:08;4.18;;;2.92;;
20619;SDS011;10469;42.720;23.252;2022-10-16T13:29:34;3.10;;;2.35;;
20619;SDS011;10469;42.720;23.252;2022-10-16T13:32:00;3.05;;;2.20;;
20619;SDS011;10469;42.720;23.252;2022-10-16T13:34:32;2.40;;;2.20;;
20619;SDS011;10469;42.720;23.252;2022-10-16T13:36:57;2.97;;;2.00;;
20619;SDS011;10469;42.720;23.252;2022-10-16T13:39:27;4.88;;;3.00;;
20619;SDS011;10469;42.720;23.252;2022-10-16T13:42:01;4.50;;;3.08;;
20619;SDS011;10469;42.720;23.252;2022-10-16T13:44:53;5.85;;;2.95;;
20619;SDS011;10469;42.720;23.252;2022-10-16T13:47:27;3.05;;;2.75;;
20619;SDS011;10469;42.720;23.252;2022-10-16T13:50:01;5.68;;;3.33;;
20619;SDS011;10469;42.720;23.252;2022-10-16T13:52:31;3.58;;;2.70;;
20619;SDS011;10469;42.720;23.252;2022-10-16T13:54:57;6.43;;;2.78;;
20619;SDS011;10469;42.720;23.252;2022-10-16T13:57:23;5.30;;;2.75;;
20619;SDS011;10469;42.720;23.252;2022-10-16T13:59:50;3.45;;;2.40;;
20619;SDS011;10469;42.720;23.252;2022-10-16T14:02:33;3.22;;;2.63;;
20619;SDS011;10469;42.720;23.252;2022-10-16T14:05:02;3.38;;;2.33;;
20619;SDS011;10469;42.720;23.252;2022-10-16T14:07:31;4.13;;;2.45;;
20619;SDS011;10469;42.720;23.252;2022-10-16T14:10:04;5.68;;;2.75;;
20619;SDS011;10469;42.720;23.252;2022-10-16T14:12:32;3.72;;;2.70;;
20619;SDS011;10469;42.720;23.252;2022-10-16T14:14:59;10.15;;;2.80;;
20619;SDS011;10469;42.720;23.252;2022-10-16T14:17:29;2.60;;;2.40;;
20619;SDS011;10469;42.720;23.252;2022-10-16T14:20:01;3.97;;;2.78;;
20619;SDS011;10469;42.720;23.252;2022-10-16T14:22:34;3.22;;;2.45;;
20619;SDS011;10469;42.720;23.252;2022-10-16T14:25:15;9.98;;;2.72;;
20619;SDS011;10469;42.720;23.252;2022-10-16T14:27:45;5.13;;;2.53;;
20619;SDS011;10469;42.720;23.252;2022-10-16T14:30:21;4.95;;;2.83;;
20619;SDS011;10469;42.720;23.252;2022-10-16T14:37:57;7.32;;;2.92;;
20619;SDS011;10469;42.720;23.252;2022-10-16T14:40:25;5.93;;;2.83;;
20619;SDS011;10469;42.720;23.252;2022-10-16T14:42:54;5.85;;;2.53;;
20619;SDS011;10469;42.720;23.252;2022-10-16T14:45:20;4.30;;;2.78;;
20619;SDS011;10469;42.720;23.252;2022-10-16T14:47:56;5.25;;;3.00;;
20619;SDS011;10469;42.720;23.252;2022-10-16T14:50:24;4.28;;;3.08;;
20619;SDS011;10469;42.720;23.252;2022-10-16T14:52:52;4.13;;;2.88;;
20619;SDS011;10469;42.720;23.252;2022-10-16T14:55:18;4.88;;;2.47;;
20619;SDS011;10469;42.720;23.252;2022-10-16T14:57:44;5.60;;;3.08;;
20619;SDS011;10469;42.720;23.252;2022-10-16T15:00:15;5.22;;;3.03;;
20619;SDS011;10469;42.720;23.252;2022-10-16T15:02:45;4.22;;;2.90;;
20619;SDS011;10469;42.720;23.252;2022-10-16T15:05:22;6.70;;;3.58;;
20619;SDS011;10469;42.720;23.252;2022-10-16T15:07:52;5.40;;;2.92;;
20619;SDS011;10469;42.720;23.252;2022-10-16T15:10:19;7.28;;;3.03;;
20619;SDS011;10469;42.720;23.252;2022-10-16T15:12:48;4.20;;;3.08;;
20619;SDS011;10469;42.720;23.252;2022-10-16T15:17:51;7.15;;;3.35;;
20619;SDS011;10469;42.720;23.252;2022-10-16T15:20:20;5.68;;;2.97;;
20619;SDS011;10469;42.720;23.252;2022-10-16T15:22:47;3.50;;;2.58;;
20619;SDS011;10469;42.720;23.252;2022-10-16T15:25:58;4.07;;;3.47;;
20619;SDS011;10469;42.720;23.252;2022-10-16T15:28:13;4.75;;;3.20;;
20619;SDS011;10469;42.720;23.252;2022-10-16T15:30:40;6.60;;;3.80;;
20619;SDS011;10469;42.720;23.252;2022-10-16T15:33:14;8.27;;;3.53;;
20619;SDS011;10469;42.720;23.252;2022-10-16T15:35:42;8.48;;;4.60;;
20619;SDS011;10469;42.720;23.252;2022-10-16T15:38:12;10.75;;;4.57;;
20619;SDS011;10469;42.720;23.252;2022-10-16T15:40:38;6.00;;;4.20;;
20619;SDS011;10469;42.720;23.252;2022-10-16T15:43:05;7.25;;;3.80;;
20619;SDS011;10469;42.720;23.252;2022-10-16T15:45:30;11.70;;;4.10;;
20619;SDS011;10469;42.720;23.252;2022-10-16T15:47:56;8.00;;;3.63;;
20619;SDS011;10469;42.720;23.252;2022-10-16T15:50:22;8.60;;;3.63;;
20619;SDS011;10469;42.720;23.252;2022-10-16T15:52:48;6.47;;;3.90;;
20619;SDS011;10469;42.720;23.252;2022-10-16T15:55:15;5.72;;;4.13;;
20619;SDS011;10469;42.720;23.252;2022-10-16T15:57:42;5.90;;;3.75;;
20619;SDS011;10469;42.720;23.252;2022-10-16T16:00:09;9.00;;;4.28;;
20619;SDS011;10469;42.720;23.252;2022-10-16T16:02:38;5.35;;;3.53;;
20619;SDS011;10469;42.720;23.252;2022-10-16T16:05:04;7.47;;;3.50;;
20619;SDS011;10469;42.720;23.252;2022-10-16T16:07:38;6.03;;;3.67;;
20619;SDS011;10469;42.720;23.252;2022-10-16T16:10:06;8.02;;;3.88;;
20619;SDS011;10469;42.720;23.252;2022-10-16T16:12:33;10.95;;;4.10;;
20619;SDS011;10469;42.720;23.252;2022-10-16T16:14:59;5.78;;;4.00;;
20619;SDS011;10469;42.720;23.252;2022-10-16T16:17:24;6.57;;;3.53;;
20619;SDS011;10469;42.720;23.252;2022-10-16T16:19:50;9.15;;;4.43;;
20619;SDS011;10469;42.720;23.252;2022-10-16T16:22:16;7.65;;;3.90;;
20619;SDS011;10469;42.720;23.252;2022-10-16T16:24:42;6.32;;;3.88;;
20619;SDS011;10469;42.720;23.252;2022-10-16T16:27:07;4.55;;;3.80;;
20619;SDS011;10469;42.720;23.252;2022-10-16T16:29:33;6.68;;;3.97;;
20619;SDS011;10469;42.720;23.252;2022-10-16T16:32:00;10.07;;;4.00;;